sensor_id;sensor_type;location;lat;lon;timestamp;P1;P2;P0
30342;PMS5003;17145;49.902;8.680;2024-01-15T00:02:05;28;25;
30342;PMS5003;17145;49.902;8.680;2024-01-15T00:04:35;43;34;
30342;PMS5003;17145;49.902;8.680;2024-01-15T00:07:03;38;29;
30342;PMS5003;17145;49.902;8.680;2024-01-15T00:09:31;35;32;
30342;PMS5003;17145;49.902;8.680;2024-01-15T00:11:58;51;40;
30342;PMS5003;17145;49.902;8.680;2024-01-15T00:14:27;54;31;
30342;PMS5003;17145;49.902;8.680;2024-01-15T00:16:54;55;31;
30342;PMS5003;17145;49.902;8.680;2024-01-15T00:19:22;34;28;
30342;PMS5003;17145;49.902;8.680;2024-01-15T00:21:49;34;30;
30342;PMS5003;17145;49.902;8.680;2024-01-15T00:24:17;40;28;
30342;PMS5003;17145;49.902;8.680;2024-01-15T00:26:44;35;30;
30342;PMS5003;17145;49.902;8.680;2024-01-15T00:29:12;42;34;
30342;PMS5003;17145;49.902;8.680;2024-01-15T00:31:39;30;27;
30342;PMS5003;17145;49.902;8.680;2024-01-15T00:34:06;34;30;
30342;PMS5003;17145;49.902;8.680;2024-01-15T00:36:34;32;24;
30342;PMS5003;17145;49.902;8.680;2024-01-15T00:39:02;36;31;
30342;PMS5003;17145;49.902;8.680;2024-01-15T00:41:29;38;30;
30342;PMS5003;17145;49.902;8.680;2024-01-15T00:43:56;34;30;
30342;PMS5003;17145;49.902;8.680;2024-01-15T00:46:24;38;27;
30342;PMS5003;17145;49.902;8.680;2024-01-15T00:48:51;27;24;
30342;PMS5003;17145;49.902;8.680;2024-01-15T00:51:18;27;24;
30342;PMS5003;17145;49.902;8.680;2024-01-15T00:53:46;44;30;
30342;PMS5003;17145;49.902;8.680;2024-01-15T00:56:13;48;30;
30342;PMS5003;17145;49.902;8.680;2024-01-15T00:58:41;37;31;
30342;PMS5003;17145;49.902;8.680;2024-01-15T01:01:08;41;30;
30342;PMS5003;17145;49.902;8.680;2024-01-15T01:03:36;44;28;
30342;PMS5003;17145;49.902;8.680;2024-01-15T01:06:03;48;31;
30342;PMS5003;17145;49.902;8.680;2024-01-15T01:08:31;30;28;
30342;PMS5003;17145;49.902;8.680;2024-01-15T01:10:58;37;30;
30342;PMS5003;17145;49.902;8.680;2024-01-15T01:13:26;35;31;
30342;PMS5003;17145;49.902;8.680;2024-01-15T01:15:53;53;44;
30342;PMS5003;17145;49.902;8.680;2024-01-15T01:18:20;58;44;
30342;PMS5003;17145;49.902;8.680;2024-01-15T01:20:48;71;48;
30342;PMS5003;17145;49.902;8.680;2024-01-15T01:23:15;64;40;
30342;PMS5003;17145;49.902;8.680;2024-01-15T01:25:43;50;44;
30342;PMS5003;17145;49.902;8.680;2024-01-15T01:28:10;52;39;
30342;PMS5003;17145;49.902;8.680;2024-01-15T01:30:38;58;44;
30342;PMS5003;17145;49.902;8.680;2024-01-15T01:33:05;58;38;
30342;PMS5003;17145;49.902;8.680;2024-01-15T01:35:32;71;48;
30342;PMS5003;17145;49.902;8.680;2024-01-15T01:38:00;67;45;
30342;PMS5003;17145;49.902;8.680;2024-01-15T01:40:27;41;40;
30342;PMS5003;17145;49.902;8.680;2024-01-15T01:42:54;51;48;
30342;PMS5003;17145;49.902;8.680;2024-01-15T01:45:23;57;37;
30342;PMS5003;17145;49.902;8.680;2024-01-15T01:47:50;62;44;
30342;PMS5003;17145;49.902;8.680;2024-01-15T01:50:18;57;45;
30342;PMS5003;17145;49.902;8.680;2024-01-15T01:52:46;54;47;
30342;PMS5003;17145;49.902;8.680;2024-01-15T01:55:14;55;42;
30342;PMS5003;17145;49.902;8.680;2024-01-15T01:57:42;76;48;
30342;PMS5003;17145;49.902;8.680;2024-01-15T02:00:10;64;50;
30342;PMS5003;17145;49.902;8.680;2024-01-15T02:02:39;78;51;
30342;PMS5003;17145;49.902;8.680;2024-01-15T02:05:06;61;54;
30342;PMS5003;17145;49.902;8.680;2024-01-15T02:07:35;76;45;
30342;PMS5003;17145;49.902;8.680;2024-01-15T02:10:03;47;37;
30342;PMS5003;17145;49.902;8.680;2024-01-15T02:12:31;55;38;
30342;PMS5003;17145;49.902;8.680;2024-01-15T02:14:59;51;38;
30342;PMS5003;17145;49.902;8.680;2024-01-15T02:17:26;67;51;
30342;PMS5003;17145;49.902;8.680;2024-01-15T02:19:54;64;41;
30342;PMS5003;17145;49.902;8.680;2024-01-15T02:22:21;55;38;
30342;PMS5003;17145;49.902;8.680;2024-01-15T02:24:49;58;48;
30342;PMS5003;17145;49.902;8.680;2024-01-15T02:27:16;64;43;
30342;PMS5003;17145;49.902;8.680;2024-01-15T02:29:44;60;52;
30342;PMS5003;17145;49.902;8.680;2024-01-15T02:32:11;75;54;
30342;PMS5003;17145;49.902;8.680;2024-01-15T02:34:39;64;45;
30342;PMS5003;17145;49.902;8.680;2024-01-15T02:37:06;78;51;
30342;PMS5003;17145;49.902;8.680;2024-01-15T02:39:34;77;47;
30342;PMS5003;17145;49.902;8.680;2024-01-15T02:42:01;72;55;
30342;PMS5003;17145;49.902;8.680;2024-01-15T02:44:29;64;45;
30342;PMS5003;17145;49.902;8.680;2024-01-15T02:46:56;77;44;
30342;PMS5003;17145;49.902;8.680;2024-01-15T02:49:24;67;50;
30342;PMS5003;17145;49.902;8.680;2024-01-15T02:51:51;68;44;
30342;PMS5003;17145;49.902;8.680;2024-01-15T02:54:18;57;45;
30342;PMS5003;17145;49.902;8.680;2024-01-15T02:56:46;47;38;
30342;PMS5003;17145;49.902;8.680;2024-01-15T02:59:13;52;42;
30342;PMS5003;17145;49.902;8.680;2024-01-15T03:01:41;58;40;
30342;PMS5003;17145;49.902;8.680;2024-01-15T03:04:08;63;43;
30342;PMS5003;17145;49.902;8.680;2024-01-15T03:06:35;44;40;
30342;PMS5003;17145;49.902;8.680;2024-01-15T03:09:03;60;45;
30342;PMS5003;17145;49.902;8.680;2024-01-15T03:14:05;58;41;
30342;PMS5003;17145;49.902;8.680;2024-01-15T03:16:32;50;42;
30342;PMS5003;17145;49.902;8.680;2024-01-15T03:18:59;47;41;
30342;PMS5003;17145;49.902;8.680;2024-01-15T03:21:27;43;36;
30342;PMS5003;17145;49.902;8.680;2024-01-15T03:23:55;50;35;
30342;PMS5003;17145;49.902;8.680;2024-01-15T03:26:24;46;32;
30342;PMS5003;17145;49.902;8.680;2024-01-15T03:28:52;37;34;
30342;PMS5003;17145;49.902;8.680;2024-01-15T03:31:19;35;30;
30342;PMS5003;17145;49.902;8.680;2024-01-15T03:33:46;30;27;
30342;PMS5003;17145;49.902;8.680;2024-01-15T03:36:14;34;27;
30342;PMS5003;17145;49.902;8.680;2024-01-15T03:38:41;32;27;
30342;PMS5003;17145;49.902;8.680;2024-01-15T03:41:09;36;28;
30342;PMS5003;17145;49.902;8.680;2024-01-15T03:43:36;32;25;
30342;PMS5003;17145;49.902;8.680;2024-01-15T03:46:04;43;30;
30342;PMS5003;17145;49.902;8.680;2024-01-15T03:48:31;37;28;
30342;PMS5003;17145;49.902;8.680;2024-01-15T03:50:59;43;27;
30342;PMS5003;17145;49.902;8.680;2024-01-15T03:53:26;34;25;
30342;PMS5003;17145;49.902;8.680;2024-01-15T03:55:54;34;25;
30342;PMS5003;17145;49.902;8.680;2024-01-15T03:58:21;37;31;
30342;PMS5003;17145;49.902;8.680;2024-01-15T04:00:48;30;25;
30342;PMS5003;17145;49.902;8.680;2024-01-15T04:03:16;38;27;
30342;PMS5003;17145;49.902;8.680;2024-01-15T04:05:44;35;27;
30342;PMS5003;17145;49.902;8.680;2024-01-15T04:08:12;28;24;
30342;PMS5003;17145;49.902;8.680;2024-01-15T04:10:39;31;25;
30342;PMS5003;17145;49.902;8.680;2024-01-15T04:13:07;23;23;
30342;PMS5003;17145;49.902;8.680;2024-01-15T04:15:34;43;25;
30342;PMS5003;17145;49.902;8.680;2024-01-15T04:18:02;31;27;
30342;PMS5003;17145;49.902;8.680;2024-01-15T04:20:30;25;24;
30342;PMS5003;17145;49.902;8.680;2024-01-15T04:22:57;39;27;
30342;PMS5003;17145;49.902;8.680;2024-01-15T04:25:25;31;25;
30342;PMS5003;17145;49.902;8.680;2024-01-15T04:27:52;28;25;
30342;PMS5003;17145;49.902;8.680;2024-01-15T04:30:19;34;25;
30342;PMS5003;17145;49.902;8.680;2024-01-15T04:32:47;33;27;
30342;PMS5003;17145;49.902;8.680;2024-01-15T04:35:14;28;24;
30342;PMS5003;17145;49.902;8.680;2024-01-15T04:37:42;26;23;
30342;PMS5003;17145;49.902;8.680;2024-01-15T04:40:10;27;26;
30342;PMS5003;17145;49.902;8.680;2024-01-15T04:42:38;26;24;
30342;PMS5003;17145;49.902;8.680;2024-01-15T04:45:06;27;23;
30342;PMS5003;17145;49.902;8.680;2024-01-15T04:47:34;44;26;
30342;PMS5003;17145;49.902;8.680;2024-01-15T04:50:01;55;30;
30342;PMS5003;17145;49.902;8.680;2024-01-15T04:52:29;39;26;
30342;PMS5003;17145;49.902;8.680;2024-01-15T04:54:56;31;27;
30342;PMS5003;17145;49.902;8.680;2024-01-15T04:57:24;40;28;
30342;PMS5003;17145;49.902;8.680;2024-01-15T04:59:51;33;30;
30342;PMS5003;17145;49.902;8.680;2024-01-15T05:02:18;40;27;
30342;PMS5003;17145;49.902;8.680;2024-01-15T05:04:46;34;26;
30342;PMS5003;17145;49.902;8.680;2024-01-15T05:07:13;33;29;
30342;PMS5003;17145;49.902;8.680;2024-01-15T05:09:41;41;33;
30342;PMS5003;17145;49.902;8.680;2024-01-15T05:12:08;28;24;
30342;PMS5003;17145;49.902;8.680;2024-01-15T05:14:35;26;26;
30342;PMS5003;17145;49.902;8.680;2024-01-15T05:17:03;27;24;
30342;PMS5003;17145;49.902;8.680;2024-01-15T05:19:30;37;27;
30342;PMS5003;17145;49.902;8.680;2024-01-15T05:21:57;31;28;
30342;PMS5003;17145;49.902;8.680;2024-01-15T05:24:25;30;26;
30342;PMS5003;17145;49.902;8.680;2024-01-15T05:26:52;34;26;
30342;PMS5003;17145;49.902;8.680;2024-01-15T05:29:20;27;23;
30342;PMS5003;17145;49.902;8.680;2024-01-15T05:31:47;29;21;
30342;PMS5003;17145;49.902;8.680;2024-01-15T05:34:15;30;23;
30342;PMS5003;17145;49.902;8.680;2024-01-15T05:36:42;30;27;
30342;PMS5003;17145;49.902;8.680;2024-01-15T05:39:10;37;24;
30342;PMS5003;17145;49.902;8.680;2024-01-15T05:41:37;26;24;
30342;PMS5003;17145;49.902;8.680;2024-01-15T05:44:04;36;26;
30342;PMS5003;17145;49.902;8.680;2024-01-15T05:46:32;33;27;
30342;PMS5003;17145;49.902;8.680;2024-01-15T05:48:59;26;23;
30342;PMS5003;17145;49.902;8.680;2024-01-15T05:51:26;26;20;
30342;PMS5003;17145;49.902;8.680;2024-01-15T05:53:54;40;28;
30342;PMS5003;17145;49.902;8.680;2024-01-15T05:56:21;47;30;
30342;PMS5003;17145;49.902;8.680;2024-01-15T05:58:49;31;27;
30342;PMS5003;17145;49.902;8.680;2024-01-15T06:01:16;32;28;
30342;PMS5003;17145;49.902;8.680;2024-01-15T06:03:44;33;26;
30342;PMS5003;17145;49.902;8.680;2024-01-15T06:06:11;37;33;
30342;PMS5003;17145;49.902;8.680;2024-01-15T06:08:39;40;30;
30342;PMS5003;17145;49.902;8.680;2024-01-15T06:11:06;37;29;
30342;PMS5003;17145;49.902;8.680;2024-01-15T06:13:34;36;31;
30342;PMS5003;17145;49.902;8.680;2024-01-15T06:16:02;36;27;
30342;PMS5003;17145;49.902;8.680;2024-01-15T06:18:29;36;30;
30342;PMS5003;17145;49.902;8.680;2024-01-15T06:20:57;45;32;
30342;PMS5003;17145;49.902;8.680;2024-01-15T06:23:24;36;31;
30342;PMS5003;17145;49.902;8.680;2024-01-15T06:25:51;47;36;
30342;PMS5003;17145;49.902;8.680;2024-01-15T06:28:19;39;33;
30342;PMS5003;17145;49.902;8.680;2024-01-15T06:30:46;45;36;
30342;PMS5003;17145;49.902;8.680;2024-01-15T06:33:15;30;26;
30342;PMS5003;17145;49.902;8.680;2024-01-15T06:35:43;37;31;
30342;PMS5003;17145;49.902;8.680;2024-01-15T06:38:10;52;30;
30342;PMS5003;17145;49.902;8.680;2024-01-15T06:40:37;39;33;
30342;PMS5003;17145;49.902;8.680;2024-01-15T06:43:04;43;33;
30342;PMS5003;17145;49.902;8.680;2024-01-15T06:45:32;43;36;
30342;PMS5003;17145;49.902;8.680;2024-01-15T06:47:59;58;36;
30342;PMS5003;17145;49.902;8.680;2024-01-15T06:50:26;53;36;
30342;PMS5003;17145;49.902;8.680;2024-01-15T06:52:54;51;35;
30342;PMS5003;17145;49.902;8.680;2024-01-15T06:55:21;50;43;
30342;PMS5003;17145;49.902;8.680;2024-01-15T06:57:49;49;40;
30342;PMS5003;17145;49.902;8.680;2024-01-15T07:00:17;58;37;
30342;PMS5003;17145;49.902;8.680;2024-01-15T07:02:44;56;37;
30342;PMS5003;17145;49.902;8.680;2024-01-15T07:05:12;47;36;
30342;PMS5003;17145;49.902;8.680;2024-01-15T07:07:39;39;36;
30342;PMS5003;17145;49.902;8.680;2024-01-15T07:10:07;40;35;
30342;PMS5003;17145;49.902;8.680;2024-01-15T07:12:34;59;37;
30342;PMS5003;17145;49.902;8.680;2024-01-15T07:15:02;55;36;
30342;PMS5003;17145;49.902;8.680;2024-01-15T07:17:29;44;36;
30342;PMS5003;17145;49.902;8.680;2024-01-15T07:19:56;62;42;
30342;PMS5003;17145;49.902;8.680;2024-01-15T07:22:24;47;37;
30342;PMS5003;17145;49.902;8.680;2024-01-15T07:24:51;52;40;
30342;PMS5003;17145;49.902;8.680;2024-01-15T07:27:19;46;37;
30342;PMS5003;17145;49.902;8.680;2024-01-15T07:29:46;62;40;
30342;PMS5003;17145;49.902;8.680;2024-01-15T07:32:13;49;40;
30342;PMS5003;17145;49.902;8.680;2024-01-15T07:34:42;57;39;
30342;PMS5003;17145;49.902;8.680;2024-01-15T07:37:10;53;39;
30342;PMS5003;17145;49.902;8.680;2024-01-15T07:39:37;49;37;
30342;PMS5003;17145;49.902;8.680;2024-01-15T07:42:05;46;37;
30342;PMS5003;17145;49.902;8.680;2024-01-15T07:44:32;41;38;
30342;PMS5003;17145;49.902;8.680;2024-01-15T07:47:00;56;39;
30342;PMS5003;17145;49.902;8.680;2024-01-15T07:49:28;46;37;
30342;PMS5003;17145;49.902;8.680;2024-01-15T07:51:55;60;39;
30342;PMS5003;17145;49.902;8.680;2024-01-15T07:54:22;47;34;
30342;PMS5003;17145;49.902;8.680;2024-01-15T07:56:53;37;31;
30342;PMS5003;17145;49.902;8.680;2024-01-15T07:59:21;49;41;
30342;PMS5003;17145;49.902;8.680;2024-01-15T08:01:49;57;41;
30342;PMS5003;17145;49.902;8.680;2024-01-15T08:04:16;70;43;
30342;PMS5003;17145;49.902;8.680;2024-01-15T08:06:44;49;40;
30342;PMS5003;17145;49.902;8.680;2024-01-15T08:09:12;60;43;
30342;PMS5003;17145;49.902;8.680;2024-01-15T08:11:39;64;47;
30342;PMS5003;17145;49.902;8.680;2024-01-15T08:14:07;41;39;
30342;PMS5003;17145;49.902;8.680;2024-01-15T08:16:35;41;34;
30342;PMS5003;17145;49.902;8.680;2024-01-15T08:19:02;61;38;
30342;PMS5003;17145;49.902;8.680;2024-01-15T08:21:30;54;35;
30342;PMS5003;17145;49.902;8.680;2024-01-15T08:23:58;54;43;
30342;PMS5003;17145;49.902;8.680;2024-01-15T08:26:27;46;37;
30342;PMS5003;17145;49.902;8.680;2024-01-15T08:28:55;41;34;
30342;PMS5003;17145;49.902;8.680;2024-01-15T08:31:22;49;37;
30342;PMS5003;17145;49.902;8.680;2024-01-15T08:33:50;39;34;
30342;PMS5003;17145;49.902;8.680;2024-01-15T08:36:17;43;34;
30342;PMS5003;17145;49.902;8.680;2024-01-15T08:38:45;49;34;
30342;PMS5003;17145;49.902;8.680;2024-01-15T08:41:13;40;29;
30342;PMS5003;17145;49.902;8.680;2024-01-15T08:43:40;49;33;
30342;PMS5003;17145;49.902;8.680;2024-01-15T08:46:07;36;31;
30342;PMS5003;17145;49.902;8.680;2024-01-15T08:48:35;53;39;
30342;PMS5003;17145;49.902;8.680;2024-01-15T08:51:02;43;37;
30342;PMS5003;17145;49.902;8.680;2024-01-15T08:53:30;53;34;
30342;PMS5003;17145;49.902;8.680;2024-01-15T08:55:57;52;40;
30342;PMS5003;17145;49.902;8.680;2024-01-15T08:58:24;46;40;
30342;PMS5003;17145;49.902;8.680;2024-01-15T09:00:52;52;42;
30342;PMS5003;17145;49.902;8.680;2024-01-15T09:03:19;55;43;
30342;PMS5003;17145;49.902;8.680;2024-01-15T09:05:46;53;39;
30342;PMS5003;17145;49.902;8.680;2024-01-15T09:08:14;69;40;
30342;PMS5003;17145;49.902;8.680;2024-01-15T09:10:41;60;39;
30342;PMS5003;17145;49.902;8.680;2024-01-15T09:13:09;62;40;
30342;PMS5003;17145;49.902;8.680;2024-01-15T09:15:36;60;42;
30342;PMS5003;17145;49.902;8.680;2024-01-15T09:18:04;52;44;
30342;PMS5003;17145;49.902;8.680;2024-01-15T09:20:31;53;39;
30342;PMS5003;17145;49.902;8.680;2024-01-15T09:22:59;60;46;
30342;PMS5003;17145;49.902;8.680;2024-01-15T09:25:26;63;44;
30342;PMS5003;17145;49.902;8.680;2024-01-15T09:27:54;41;34;
30342;PMS5003;17145;49.902;8.680;2024-01-15T09:30:21;56;34;
30342;PMS5003;17145;49.902;8.680;2024-01-15T09:32:48;44;39;
30342;PMS5003;17145;49.902;8.680;2024-01-15T09:35:16;53;37;
30342;PMS5003;17145;49.902;8.680;2024-01-15T09:37:43;41;31;
30342;PMS5003;17145;49.902;8.680;2024-01-15T09:40:12;60;37;
30342;PMS5003;17145;49.902;8.680;2024-01-15T09:42:40;44;36;
30342;PMS5003;17145;49.902;8.680;2024-01-15T09:45:08;62;41;
30342;PMS5003;17145;49.902;8.680;2024-01-15T09:47:36;47;34;
30342;PMS5003;17145;49.902;8.680;2024-01-15T09:50:04;50;37;
30342;PMS5003;17145;49.902;8.680;2024-01-15T09:52:33;50;40;
30342;PMS5003;17145;49.902;8.680;2024-01-15T09:55:03;53;39;
30342;PMS5003;17145;49.902;8.680;2024-01-15T09:57:31;71;42;
30342;PMS5003;17145;49.902;8.680;2024-01-15T09:59:59;50;37;
30342;PMS5003;17145;49.902;8.680;2024-01-15T10:02:29;46;37;
30342;PMS5003;17145;49.902;8.680;2024-01-15T10:04:58;47;40;
30342;PMS5003;17145;49.902;8.680;2024-01-15T10:07:25;54;39;
30342;PMS5003;17145;49.902;8.680;2024-01-15T10:09:55;53;31;
30342;PMS5003;17145;49.902;8.680;2024-01-15T10:12:23;46;39;
30342;PMS5003;17145;49.902;8.680;2024-01-15T10:14:50;41;35;
30342;PMS5003;17145;49.902;8.680;2024-01-15T10:17:18;43;37;
30342;PMS5003;17145;49.902;8.680;2024-01-15T10:19:45;50;40;
30342;PMS5003;17145;49.902;8.680;2024-01-15T10:22:13;59;43;
30342;PMS5003;17145;49.902;8.680;2024-01-15T10:24:41;53;43;
30342;PMS5003;17145;49.902;8.680;2024-01-15T10:27:09;58;36;
30342;PMS5003;17145;49.902;8.680;2024-01-15T10:29:37;43;40;
30342;PMS5003;17145;49.902;8.680;2024-01-15T10:32:06;59;39;
30342;PMS5003;17145;49.902;8.680;2024-01-15T10:34:37;65;43;
30342;PMS5003;17145;49.902;8.680;2024-01-15T10:37:04;43;37;
30342;PMS5003;17145;49.902;8.680;2024-01-15T10:39:33;72;46;
30342;PMS5003;17145;49.902;8.680;2024-01-15T10:42:01;46;44;
30342;PMS5003;17145;49.902;8.680;2024-01-15T10:44:28;53;40;
30342;PMS5003;17145;49.902;8.680;2024-01-15T10:46:56;55;40;
30342;PMS5003;17145;49.902;8.680;2024-01-15T10:49:24;58;46;
30342;PMS5003;17145;49.902;8.680;2024-01-15T10:51:52;44;34;
30342;PMS5003;17145;49.902;8.680;2024-01-15T10:54:20;40;37;
30342;PMS5003;17145;49.902;8.680;2024-01-15T10:56:48;62;40;
30342;PMS5003;17145;49.902;8.680;2024-01-15T10:59:17;40;37;
30342;PMS5003;17145;49.902;8.680;2024-01-15T11:01:47;39;33;
30342;PMS5003;17145;49.902;8.680;2024-01-15T11:04:15;38;27;
30342;PMS5003;17145;49.902;8.680;2024-01-15T11:06:44;57;34;
30342;PMS5003;17145;49.902;8.680;2024-01-15T11:09:14;37;34;
30342;PMS5003;17145;49.902;8.680;2024-01-15T11:11:42;41;34;
30342;PMS5003;17145;49.902;8.680;2024-01-15T11:14:12;42;36;
30342;PMS5003;17145;49.902;8.680;2024-01-15T11:16:54;56;37;
30342;PMS5003;17145;49.902;8.680;2024-01-15T11:19:22;47;40;
30342;PMS5003;17145;49.902;8.680;2024-01-15T11:21:49;53;38;
30342;PMS5003;17145;49.902;8.680;2024-01-15T11:27:00;58;43;
30342;PMS5003;17145;49.902;8.680;2024-01-15T11:29:31;62;41;
30342;PMS5003;17145;49.902;8.680;2024-01-15T11:31:59;54;44;
30342;PMS5003;17145;49.902;8.680;2024-01-15T11:37:13;69;44;
30342;PMS5003;17145;49.902;8.680;2024-01-15T11:39:42;75;47;
30342;PMS5003;17145;49.902;8.680;2024-01-15T11:42:10;63;54;
30342;PMS5003;17145;49.902;8.680;2024-01-15T11:44:38;66;52;
30342;PMS5003;17145;49.902;8.680;2024-01-15T11:47:06;59;53;
30342;PMS5003;17145;49.902;8.680;2024-01-15T11:52:22;56;46;
30342;PMS5003;17145;49.902;8.680;2024-01-15T11:54:51;60;44;
30342;PMS5003;17145;49.902;8.680;2024-01-15T11:57:26;65;41;
30342;PMS5003;17145;49.902;8.680;2024-01-15T11:59:59;54;43;
30342;PMS5003;17145;49.902;8.680;2024-01-15T12:02:27;63;51;
30342;PMS5003;17145;49.902;8.680;2024-01-15T12:04:55;53;44;
30342;PMS5003;17145;49.902;8.680;2024-01-15T12:07:22;48;43;
30342;PMS5003;17145;49.902;8.680;2024-01-15T12:09:50;57;49;
30342;PMS5003;17145;49.902;8.680;2024-01-15T12:12:24;54;44;
30342;PMS5003;17145;49.902;8.680;2024-01-15T12:14:54;63;43;
30342;PMS5003;17145;49.902;8.680;2024-01-15T12:17:21;69;49;
30342;PMS5003;17145;49.902;8.680;2024-01-15T12:19:48;75;46;
30342;PMS5003;17145;49.902;8.680;2024-01-15T12:22:16;69;43;
30342;PMS5003;17145;49.902;8.680;2024-01-15T12:24:43;71;47;
30342;PMS5003;17145;49.902;8.680;2024-01-15T12:27:10;70;52;
30342;PMS5003;17145;49.902;8.680;2024-01-15T12:29:38;75;52;
30342;PMS5003;17145;49.902;8.680;2024-01-15T12:32:05;75;52;
30342;PMS5003;17145;49.902;8.680;2024-01-15T12:34:33;53;47;
30342;PMS5003;17145;49.902;8.680;2024-01-15T12:37:00;57;46;
30342;PMS5003;17145;49.902;8.680;2024-01-15T12:39:27;63;49;
30342;PMS5003;17145;49.902;8.680;2024-01-15T12:41:55;59;49;
30342;PMS5003;17145;49.902;8.680;2024-01-15T12:44:22;68;46;
30342;PMS5003;17145;49.902;8.680;2024-01-15T12:46:49;57;47;
30342;PMS5003;17145;49.902;8.680;2024-01-15T12:49:18;70;42;
30342;PMS5003;17145;49.902;8.680;2024-01-15T12:54:20;54;47;
30342;PMS5003;17145;49.902;8.680;2024-01-15T12:56:48;72;47;
30342;PMS5003;17145;49.902;8.680;2024-01-15T12:59:15;49;43;
30342;PMS5003;17145;49.902;8.680;2024-01-15T13:01:43;62;43;
30342;PMS5003;17145;49.902;8.680;2024-01-15T13:04:11;72;49;
30342;PMS5003;17145;49.902;8.680;2024-01-15T13:06:39;73;50;
30342;PMS5003;17145;49.902;8.680;2024-01-15T13:09:06;44;39;
30342;PMS5003;17145;49.902;8.680;2024-01-15T13:11:34;66;49;
30342;PMS5003;17145;49.902;8.680;2024-01-15T13:14:01;75;46;
30342;PMS5003;17145;49.902;8.680;2024-01-15T13:16:28;47;41;
30342;PMS5003;17145;49.902;8.680;2024-01-15T13:18:56;60;50;
30342;PMS5003;17145;49.902;8.680;2024-01-15T13:21:23;69;47;
30342;PMS5003;17145;49.902;8.680;2024-01-15T13:23:50;73;47;
30342;PMS5003;17145;49.902;8.680;2024-01-15T13:26:18;56;43;
30342;PMS5003;17145;49.902;8.680;2024-01-15T13:28:45;66;47;
30342;PMS5003;17145;49.902;8.680;2024-01-15T13:31:13;76;50;
30342;PMS5003;17145;49.902;8.680;2024-01-15T13:33:41;75;54;
30342;PMS5003;17145;49.902;8.680;2024-01-15T13:36:08;81;53;
30342;PMS5003;17145;49.902;8.680;2024-01-15T13:38:36;76;51;
30342;PMS5003;17145;49.902;8.680;2024-01-15T13:41:03;63;49;
30342;PMS5003;17145;49.902;8.680;2024-01-15T13:43:31;56;49;
30342;PMS5003;17145;49.902;8.680;2024-01-15T13:45:59;69;44;
30342;PMS5003;17145;49.902;8.680;2024-01-15T13:48:27;51;44;
30342;PMS5003;17145;49.902;8.680;2024-01-15T13:50:55;70;49;
30342;PMS5003;17145;49.902;8.680;2024-01-15T13:53:22;69;49;
30342;PMS5003;17145;49.902;8.680;2024-01-15T13:55:50;66;49;
30342;PMS5003;17145;49.902;8.680;2024-01-15T13:58:18;75;47;
30342;PMS5003;17145;49.902;8.680;2024-01-15T14:00:45;82;53;
30342;PMS5003;17145;49.902;8.680;2024-01-15T14:03:13;62;47;
30342;PMS5003;17145;49.902;8.680;2024-01-15T14:05:40;62;49;
30342;PMS5003;17145;49.902;8.680;2024-01-15T14:08:07;62;50;
30342;PMS5003;17145;49.902;8.680;2024-01-15T14:10:35;73;54;
30342;PMS5003;17145;49.902;8.680;2024-01-15T14:13:02;75;52;
30342;PMS5003;17145;49.902;8.680;2024-01-15T14:15:30;65;50;
30342;PMS5003;17145;49.902;8.680;2024-01-15T14:17:58;68;48;
30342;PMS5003;17145;49.902;8.680;2024-01-15T14:20:25;54;49;
30342;PMS5003;17145;49.902;8.680;2024-01-15T14:22:52;69;51;
30342;PMS5003;17145;49.902;8.680;2024-01-15T14:25:22;76;49;
30342;PMS5003;17145;49.902;8.680;2024-01-15T14:27:50;60;49;
30342;PMS5003;17145;49.902;8.680;2024-01-15T14:30:17;54;49;
30342;PMS5003;17145;49.902;8.680;2024-01-15T14:32:45;57;41;
30342;PMS5003;17145;49.902;8.680;2024-01-15T14:35:12;89;52;
30342;PMS5003;17145;49.902;8.680;2024-01-15T14:37:40;54;46;
30342;PMS5003;17145;49.902;8.680;2024-01-15T14:40:08;75;52;
30342;PMS5003;17145;49.902;8.680;2024-01-15T14:42:35;82;56;
30342;PMS5003;17145;49.902;8.680;2024-01-15T14:45:03;74;48;
30342;PMS5003;17145;49.902;8.680;2024-01-15T14:47:31;72;54;
30342;PMS5003;17145;49.902;8.680;2024-01-15T14:49:59;69;49;
30342;PMS5003;17145;49.902;8.680;2024-01-15T14:52:26;66;46;
30342;PMS5003;17145;49.902;8.680;2024-01-15T14:54:53;69;46;
30342;PMS5003;17145;49.902;8.680;2024-01-15T14:57:21;65;47;
30342;PMS5003;17145;49.902;8.680;2024-01-15T14:59:48;68;53;
30342;PMS5003;17145;49.902;8.680;2024-01-15T15:02:16;83;52;
30342;PMS5003;17145;49.902;8.680;2024-01-15T15:04:43;78;49;
30342;PMS5003;17145;49.902;8.680;2024-01-15T15:07:11;68;47;
30342;PMS5003;17145;49.902;8.680;2024-01-15T15:09:38;72;51;
30342;PMS5003;17145;49.902;8.680;2024-01-15T15:12:06;82;52;
30342;PMS5003;17145;49.902;8.680;2024-01-15T15:14:33;86;65;
30342;PMS5003;17145;49.902;8.680;2024-01-15T15:17:01;88;62;
30342;PMS5003;17145;49.902;8.680;2024-01-15T15:19:28;96;60;
30342;PMS5003;17145;49.902;8.680;2024-01-15T15:21:55;96;66;
30342;PMS5003;17145;49.902;8.680;2024-01-15T15:24:23;92;60;
30342;PMS5003;17145;49.902;8.680;2024-01-15T15:26:51;83;60;
30342;PMS5003;17145;49.902;8.680;2024-01-15T15:29:18;89;62;
30342;PMS5003;17145;49.902;8.680;2024-01-15T15:31:45;96;63;
30342;PMS5003;17145;49.902;8.680;2024-01-15T15:34:13;99;64;
30342;PMS5003;17145;49.902;8.680;2024-01-15T15:36:40;92;62;
30342;PMS5003;17145;49.902;8.680;2024-01-15T15:39:08;95;69;
30342;PMS5003;17145;49.902;8.680;2024-01-15T15:41:35;90;69;
30342;PMS5003;17145;49.902;8.680;2024-01-15T15:44:03;99;64;
30342;PMS5003;17145;49.902;8.680;2024-01-15T15:46:30;92;70;
30342;PMS5003;17145;49.902;8.680;2024-01-15T15:48:58;91;57;
30342;PMS5003;17145;49.902;8.680;2024-01-15T15:51:25;73;60;
30342;PMS5003;17145;49.902;8.680;2024-01-15T15:53:52;88;59;
30342;PMS5003;17145;49.902;8.680;2024-01-15T15:56:20;82;63;
30342;PMS5003;17145;49.902;8.680;2024-01-15T15:58:47;86;49;
30342;PMS5003;17145;49.902;8.680;2024-01-15T16:01:15;60;53;
30342;PMS5003;17145;49.902;8.680;2024-01-15T16:03:42;85;63;
30342;PMS5003;17145;49.902;8.680;2024-01-15T16:06:10;99;59;
30342;PMS5003;17145;49.902;8.680;2024-01-15T16:08:37;82;56;
30342;PMS5003;17145;49.902;8.680;2024-01-15T16:11:04;97;59;
30342;PMS5003;17145;49.902;8.680;2024-01-15T16:13:32;85;58;
30342;PMS5003;17145;49.902;8.680;2024-01-15T16:15:59;79;63;
30342;PMS5003;17145;49.902;8.680;2024-01-15T16:18:27;88;65;
30342;PMS5003;17145;49.902;8.680;2024-01-15T16:20:54;89;63;
30342;PMS5003;17145;49.902;8.680;2024-01-15T16:23:22;82;59;
30342;PMS5003;17145;49.902;8.680;2024-01-15T16:25:50;63;56;
30342;PMS5003;17145;49.902;8.680;2024-01-15T16:28:17;76;54;
30342;PMS5003;17145;49.902;8.680;2024-01-15T16:30:44;69;54;
30342;PMS5003;17145;49.902;8.680;2024-01-15T16:33:12;85;54;
30342;PMS5003;17145;49.902;8.680;2024-01-15T16:35:39;76;57;